Ravalli, Montana
Current Conditions -  °F | °C
As of 10:53 PM on Sunday 23 Nov 2014 (Local Time) from KMSO Reporting Station
Few Clouds Few Clouds  
Wind Chill: 25°   Ceiling: Unl
Heat Index: 31°   Visibility: 10mi
Dew Point: 30°   Wind: 6mph
Humidity: 96%   Direction: 170°S
Pressure: 30.02"   Gusts: NA
Location:  47.27°N, 114.17°W
Report Text: KMSO 240553Z AUTO 17005KT 10SM FEW048 M01/M01 A3002 RMK AO2 SLP191 60003 T10061011 10044 21006 53013
Loading
Personal Weather Stations






























Interactive Weather Map New forecast layout! Learn more

10-Day Weather Forecast

Advertisements
Track Severe Weather on mobile